Flight Track Log - Related Links

Times and Time Zones

All times are in EDT time to prevent confusion due to time zone crossing. See the N16112 flight status page for this flight to view local times or setup timezone preferences in your user account.

Time Position Orientation Groundspeed Altitude Reporting Facility
EDT Latitude Longitude Course Direction KTS MPH feet Rate Location/Type
Thu 09:17:41 AM 35.1747 -80.9486 176° South 170 196 2,300  Level FAA TRACON SMA TRACON (SMA)
Thu 09:18:00 AM 35.1594 -80.9464 173° South 191 220 2,900 1,800 Climbing FAA TRACON SMA TRACON (SMA)
Thu 09:18:21 AM 35.1464 -80.9336 141° Southeast 210 242 3,500 1,950 Climbing FAA TRACON SMA TRACON (SMA)
Thu 09:18:40 AM 35.1303 -80.9122 133° Southeast 231 266 4,200 2,000 Climbing FAA TRACON SMA TRACON (SMA)
Thu 09:19:00 AM 35.1189 -80.8953 129° Southeast 247 284 4,800 2,341 Climbing FAA TRACON SMA TRACON (SMA)
Thu 09:19:21 AM 35.1025 -80.8744 134° Southeast 245 282 5,800 2,700 Climbing FAA TRACON SMA TRACON (SMA)
Thu 09:19:40 AM 35.0933 -80.8444 110° East 242 278 6,600 1,650 Climbing FAA TRACON SMA TRACON (SMA)
Thu 09:20:00 AM 35.1492 -80.6006 29° Northeast  Level FlightAware Approximate
Thu 09:20:01 AM 35.0950 -80.8178 86° East 254 292 6,900  Level FAA TRACON SMA TRACON (SMA)
Thu 09:20:20 AM 35.0972 -80.7911 84° East 252 290 7,000 150 Climbing FAA TRACON SMA TRACON (SMA)
Thu 09:20:41 AM 35.1006 -80.7578 83° East 259 298 7,000  Level FAA TRACON SMA TRACON (SMA)
Thu 09:21:00 AM 35.2305 -80.5449 30° Northeast  Level FlightAware Approximate
Thu 09:21:00 AM 35.1039 -80.7308 81° East 263 303 7,000  Level FAA TRACON SMA TRACON (SMA)
Thu 09:21:20 AM 35.1136 -80.7058 65° Northeast 277 319 7,400 1,902 Climbing FAA TRACON SMA TRACON (SMA)
Thu 09:21:41 AM 35.1308 -80.6772 54° Northeast 278 320 8,300 2,550 Climbing FAA TRACON SMA TRACON (SMA)
Thu 09:22:00 AM 35.3110 -80.4874 30° Northeast  Level FlightAware Approximate
Thu 09:22:00 AM 35.1450 -80.6514 56° Northeast 284 327 9,100  Level FAA TRACON SMA TRACON (SMA)
Thu 09:22:21 AM 35.1594 -80.6269 54° Northeast 287 330 9,800 2,049 Climbing FAA TRACON SMA TRACON (SMA)
Thu 09:22:41 AM 35.1775 -80.5956 55° Northeast 293 337 10,500 1,538 Climbing FAA TRACON SMA TRACON (SMA)
Thu 09:23:00 AM 35.1936 -80.5683 54° Northeast 322 371 10,800 1,050 Climbing FAA TRACON SMA TRACON (SMA)
Thu 09:23:21 AM 35.2106 -80.5400 54° Northeast 348 400 11,200 1,200 Climbing FAA TRACON SMA TRACON (SMA)
Thu 09:23:40 AM 35.2319 -80.5028 55° Northeast 353 406 11,600 1,350 Climbing FAA TRACON SMA TRACON (SMA)
Thu 09:24:01 AM 35.2489 -80.4722 56° Northeast 357 411 12,100 1,610 Climbing FAA TRACON SMA TRACON (SMA)
Thu 09:24:21 AM 35.2672 -80.4417 54° Northeast 359 413 12,700 2,000 Climbing FAA TRACON SMA TRACON (SMA)
Thu 09:24:40 AM 35.2894 -80.4025 55° Northeast 363 418 13,400 1,800 Climbing FAA TRACON SMA TRACON (SMA)
Thu 09:25:01 AM 35.3075 -80.3711 55° Northeast 365 420 13,900 1,650 Climbing FAA TRACON SMA TRACON (SMA)
Thu 09:25:20 AM 35.3256 -80.3394 55° Northeast 366 421 14,500 1,950 Climbing FAA TRACON SMA TRACON (SMA)
Thu 09:25:41 AM 35.3483 -80.2997 55° Northeast 369 425 15,200 1,756 Climbing FAA TRACON SMA TRACON (SMA)
Thu 09:26:01 AM 35.3672 -80.2681 54° Northeast 371 427 15,700 1,500 Climbing FAA TRACON SMA TRACON (SMA)
Thu 09:26:21 AM 35.3856 -80.2358 55° Northeast 373 429 16,200 1,650 Climbing FAA TRACON SMA TRACON (SMA)
Thu 09:26:41 AM 35.4092 -80.1950 55° Northeast 378 435 16,800 1,500 Climbing FAA TRACON SMA TRACON (SMA)
Thu 09:27:01 AM 35.4269 -80.1614 57° Northeast 380 437 17,200 1,385 Climbing FAA TRACON SMA TRACON (SMA)
Thu 09:27:20 AM 35.4392 -80.1231 69° East 391 450 17,700 1,350 Climbing FAA TRACON SMA TRACON (SMA)
Thu 09:27:41 AM 35.4503 -80.0739 74° East 391 450 18,100 1,317 Climbing FAA TRACON SMA TRACON (SMA)
Thu 09:28:01 AM 35.4625 -80.0361 68° East 390 449 18,600 1,538 Climbing FAA TRACON SMA TRACON (SMA)
Thu 09:28:20 AM 35.4708 -79.9961 76° East 391 450 19,100 1,650 Climbing FAA TRACON SMA TRACON (SMA)
Thu 09:28:41 AM 35.4847 -79.9475 71° East 393 452 19,700 1,650 Climbing FAA TRACON SMA TRACON (SMA)
Thu 09:29:00 AM 35.4942 -79.9078 74° East 392 451 20,200 1,650 Climbing FAA TRACON SMA TRACON (SMA)
Thu 09:29:21 AM 35.5069 -79.8586 72° East 394 453 20,800 590 Climbing FAA TRACON SMA TRACON (SMA)
Thu 09:30:01 AM 35.5069 -79.8586 349° North 394 453 20,800 1,378 Level FAA TRACON SMA TRACON (SMA)
Thu 09:30:35 AM 35.5403 -79.7194 74° East 388 447 22,500 2,170 Climbing Washington Center
Thu 09:31:35 AM 35.5764 -79.5758 73° East 394 453 24,200 1,550 Climbing Washington Center
Thu 09:32:35 AM 35.6072 -79.4625 71° East 394 453 25,600 1,450 Climbing Washington Center
Thu 09:33:35 AM 35.6508 -79.3444 66° East 389 448 27,100 1,500 Climbing Washington Center
Thu 09:34:35 AM 35.7025 -79.2189 63° Northeast 384 442 28,600 1,250 Climbing Washington Center
Thu 09:35:35 AM 35.7925 -79.1411 35° Northeast 374 430 29,600 1,050 Climbing Washington Center
Thu 09:36:35 AM 35.8906 -79.0711 30° Northeast 380 437 30,700 1,050 Climbing Washington Center
Thu 09:37:35 AM 35.9864 -79.0011 31° Northeast 391 450 31,700 1,050 Climbing Washington Center
Thu 09:38:35 AM 36.0867 -78.9308 30° Northeast 398 458 32,800 1,050 Climbing Washington Center
Thu 09:39:35 AM 36.1847 -78.8550 32° Northeast 404 465 33,800 1,000 Climbing Washington Center
Thu 09:40:35 AM 36.2825 -78.7819 31° Northeast 410 472 34,800 600 Climbing Washington Center
Thu 09:41:35 AM 36.3806 -78.7086 31° Northeast 410 472 35,000 100 Climbing Washington Center
Thu 09:42:35 AM 36.4847 -78.6300 31° Northeast 415 478 35,000  Level Washington Center
Thu 09:43:35 AM 36.5889 -78.5514 31° Northeast 428 493 35,000  Level Washington Center
Thu 09:44:35 AM 36.6719 -78.4872 32° Northeast 433 498 35,000  Level Washington Center
Thu 09:45:35 AM 36.7867 -78.4006 31° Northeast 433 498 35,000  Level Washington Center
Thu 09:46:35 AM 36.8906 -78.3214 31° Northeast 433 498 35,000  Level Washington Center
Thu 09:47:35 AM 36.9969 -78.2392 32° Northeast 433 498 35,000  Level Washington Center
Thu 09:48:35 AM 37.1031 -78.1544 32° Northeast 438 504 35,000  Level Washington Center
Thu 09:49:35 AM 37.2069 -78.0769 31° Northeast 438 504 35,000  Level Washington Center
Thu 09:50:35 AM 37.3128 -77.9969 31° Northeast 438 504 35,000  Level Washington Center
Thu 09:51:35 AM 37.4186 -77.9139 32° Northeast 438 504 35,000  Level Washington Center
Thu 09:52:35 AM 37.5247 -77.8308 32° Northeast 438 504 35,000  Level Washington Center
Thu 09:53:35 AM 37.6242 -77.7419 35° Northeast 438 504 35,000  Level Washington Center
Thu 09:54:35 AM 37.7239 -77.6528 35° Northeast 438 504 35,000  Level Washington Center
Thu 09:55:35 AM 37.8214 -77.5633 36° Northeast 432 497 35,000  Level Washington Center
Thu 09:56:35 AM 37.9167 -77.4739 37° Northeast 432 497 35,000  Level Washington Center
Thu 09:57:35 AM 38.0158 -77.3867 35° Northeast 432 497 35,000  Level Washington Center
Thu 09:58:35 AM 38.1111 -77.2992 36° Northeast 432 497 35,000  Level Washington Center
Thu 09:59:35 AM 38.2061 -77.2114 36° Northeast 432 497 35,000  Level Washington Center
Thu 10:00:35 AM 38.3033 -77.1183 37° Northeast 432 497 35,000  Level Washington Center
Thu 10:01:35 AM 38.3981 -77.0356 34° Northeast 425 489 35,000  Level Washington Center
Thu 10:02:35 AM 38.4931 -76.9444 37° Northeast 425 489 35,000  Level Washington Center
Thu 10:03:35 AM 38.5878 -76.8558 36° Northeast 456 525 35,000  Level Washington Center
Thu 10:04:35 AM 38.6931 -76.7539 37° Northeast 444 511 35,000  Level Washington Center
Thu 10:05:35 AM 38.7856 -76.6542 40° Northeast 439 505 35,000 -200 Level Washington Center
Thu 10:06:35 AM 38.8761 -76.5461 43° Northeast 439 505 34,600 -1,100 Descending Washington Center
Thu 10:07:35 AM 38.9686 -76.4381 42° Northeast 439 505 32,800 -2,000 Descending Washington Center
Thu 10:08:35 AM 39.0592 -76.3319 42° Northeast 444 511 30,600 -2,150 Descending Washington Center
Thu 10:09:35 AM 39.1514 -76.2233 42° Northeast 444 511 28,500 -1,800 Descending Washington Center
Thu 10:10:35 AM 39.2414 -76.1222 41° Northeast 456 525 27,000 -1,250 Descending Washington Center
Thu 10:11:35 AM 39.3378 -76.0156 41° Northeast 462 532 26,000 -1,000 Descending Washington Center
Thu 10:12:35 AM 39.4297 -75.9033 43° Northeast 462 532 25,000 -1,000 Descending Washington Center
Thu 10:13:35 AM 39.5239 -75.7961 41° Northeast 457 526 24,000 -950 Descending Washington Center
Thu 10:14:35 AM 39.6136 -75.6886 43° Northeast 451 519 23,100 -950 Descending Washington Center
Thu 10:15:35 AM 39.7053 -75.5753 44° Northeast 451 519 22,100 -1,600 Descending Washington Center
Thu 10:16:35 AM 39.8011 -75.4619 42° Northeast 445 512 19,900 -2,050 Descending Washington Center
Thu 10:17:35 AM 39.8883 -75.3561 43° Northeast 434 499 18,000 -2,400 Descending Washington Center
Thu 10:18:35 AM 39.9694 -75.2611 42° Northeast 416 479 15,100 -2,600 Descending Washington Center
Thu 10:19:35 AM 40.0481 -75.1658 43° Northeast 397 457 12,800 -1,950 Descending Washington Center
Thu 10:20:35 AM 40.1250 -75.0653 45° Northeast 386 444 11,200 -1,150 Descending Washington Center
Thu 10:21:35 AM 40.1975 -74.9803 42° Northeast 374 430 10,500 -1,119 Descending Washington Center
Thu 10:22:49 AM 40.2667 -74.8833 47° Northeast 303 349 8,700 -1,125 Descending New York TRACON
Thu 10:23:43 AM 40.3167 -74.8167 45° Northeast 294 338 8,100 -421 Descending New York TRACON
Thu 10:24:43 AM 40.3500 -74.7167 66° East 289 333 7,900 -600 Descending New York TRACON
Thu 10:25:43 AM 40.3667 -74.6167 78° East 290 334 6,900 -1,000 Descending New York TRACON
Thu 10:26:43 AM 40.3833 -74.5167 78° East 277 319 5,900 -1,000 Descending New York TRACON
Thu 10:27:43 AM 40.4000 -74.4167 78° East 250 288 4,900 -893 Descending New York TRACON
Thu 10:28:44 AM 40.4333 -74.3500 57° Northeast 218 251 4,100 -744 Descending New York TRACON
Thu 10:29:44 AM 40.4667 -74.3000 49° Northeast 201 231 3,400 -480 Descending New York TRACON
Thu 10:30:49 AM 40.5167 -74.2667 27° Northeast 192 221 3,100 -277 Descending New York TRACON

Login

Don't have an account? Register now (free) for customized features, flight alerts, and more!